createdAt,value
2018-11-14T00:00:17.006Z,13.2
2018-11-14T00:05:17.142Z,14
2018-11-14T00:10:17.826Z,15.5
2018-11-14T00:15:17.117Z,17
2018-11-14T00:20:17.558Z,15.6
2018-11-14T00:25:17.486Z,16
2018-11-14T00:30:17.794Z,16.8
2018-11-14T00:35:17.172Z,11.6
2018-11-14T00:40:17.407Z,12.7
2018-11-14T00:45:17.483Z,13.9
2018-11-14T00:50:17.684Z,13.7
2018-11-14T00:55:16.666Z,13.8
2018-11-14T01:00:17.801Z,13.7
2018-11-14T01:05:16.674Z,5.3
2018-11-14T01:10:16.874Z,15.7
2018-11-14T01:15:16.898Z,5.7
2018-11-14T01:20:17.238Z,12.6
2018-11-14T01:25:17.226Z,3.4
2018-11-14T01:30:17.452Z,18.2
2018-11-14T01:35:17.858Z,13.8
2018-11-14T01:40:16.954Z,15.3
2018-11-14T01:45:16.783Z,30
2018-11-14T01:50:16.790Z,14.1
2018-11-14T01:55:16.677Z,16.8
2018-11-14T02:00:17.763Z,14.2
2018-11-14T02:05:16.819Z,39.9
2018-11-14T02:10:17.217Z,16.9
2018-11-14T02:15:17.014Z,15.8
2018-11-14T02:20:16.994Z,20.2
2018-11-14T02:25:16.893Z,17.3
2018-11-14T02:30:16.734Z,17.6
2018-11-14T02:35:16.846Z,20.4
2018-11-14T02:40:16.978Z,15.6
2018-11-14T02:45:17.049Z,17.9
2018-11-14T02:50:17.131Z,18.9
2018-11-14T02:55:16.967Z,18.5
2018-11-14T03:00:16.846Z,16.7
2018-11-14T03:05:17.014Z,16.4
2018-11-14T03:10:17.114Z,18.1
2018-11-14T03:15:17.283Z,16.7
2018-11-14T03:20:17.367Z,15.8
2018-11-14T03:25:17.178Z,18.3
2018-11-14T03:30:17.188Z,20.2
2018-11-14T03:35:16.995Z,9.6
2018-11-14T03:40:17.090Z,20.7
2018-11-14T03:45:16.975Z,26.8
2018-11-14T03:50:16.754Z,24.2
2018-11-14T03:55:16.526Z,6.9
2018-11-14T04:00:17.391Z,19.9
2018-11-14T04:05:17.241Z,11.1
2018-11-14T04:10:17.425Z,20.9
2018-11-14T04:15:17.201Z,24
2018-11-14T04:20:17.243Z,18
2018-11-14T04:25:17.067Z,21.1
2018-11-14T04:30:16.857Z,16.8
2018-11-14T04:35:16.676Z,25.1
2018-11-14T04:40:16.668Z,12.9
2018-11-14T04:45:17.754Z,20.6
2018-11-14T04:50:16.572Z,23.6
2018-11-14T04:55:17.750Z,28.9
2018-11-14T05:00:16.629Z,9.1
2018-11-14T05:05:17.638Z,27
2018-11-14T05:10:16.633Z,22.5
2018-11-14T05:15:17.911Z,32.8
2018-11-14T05:20:16.908Z,15.1
2018-11-14T05:25:16.773Z,35.3
2018-11-14T05:30:16.553Z,27.8
2018-11-14T05:35:17.486Z,44.8
2018-11-14T05:40:17.636Z,30.7
2018-11-14T05:45:16.711Z,40.5
2018-11-14T05:50:16.582Z,40.5
2018-11-14T05:55:17.603Z,42
2018-11-14T06:00:17.752Z,34.3
2018-11-14T06:05:16.870Z,46.8
2018-11-14T06:10:17.051Z,45.1
2018-11-14T06:15:17.007Z,47.9
2018-11-14T06:20:17.472Z,44.5
2018-11-14T06:25:17.993Z,36.2
2018-11-14T06:30:17.170Z,50.2
2018-11-14T06:35:17.233Z,37
2018-11-14T06:40:17.362Z,51.6
2018-11-14T06:45:17.362Z,59.6
2018-11-14T06:50:17.429Z,60.1
2018-11-14T06:55:17.522Z,58.9
2018-11-14T07:00:17.493Z,61
2018-11-14T07:05:17.663Z,39.9
2018-11-14T07:10:17.199Z,50.1
2018-11-14T07:15:17.142Z,38
2018-11-14T07:20:17.249Z,69.4
2018-11-14T07:25:17.552Z,67
2018-11-14T07:30:17.506Z,67.9
2018-11-14T07:35:17.486Z,64.5
2018-11-14T07:40:17.601Z,90
2018-11-14T07:45:17.781Z,71.6
2018-11-14T07:50:16.859Z,61.5
2018-11-14T07:55:17.162Z,71.5
2018-11-14T08:00:17.603Z,66.2
2018-11-14T08:05:18.030Z,62.2
2018-11-14T08:10:17.410Z,63.7
2018-11-14T08:15:17.327Z,60.7
2018-11-14T08:20:17.559Z,58.7
2018-11-14T08:25:17.766Z,53.7
2018-11-14T08:30:16.998Z,57.5
2018-11-14T08:35:16.950Z,57.6
2018-11-14T08:40:17.246Z,58.1
2018-11-14T08:45:17.205Z,58.3
2018-11-14T08:50:17.385Z,58.5
2018-11-14T08:55:17.697Z,58.2
2018-11-14T09:00:17.862Z,44.8
2018-11-14T09:05:16.779Z,62.1
2018-11-14T09:10:17.154Z,61.5
2018-11-14T09:15:17.199Z,66.1
2018-11-14T09:20:17.454Z,63.3
2018-11-14T09:25:17.617Z,63.9
2018-11-14T09:30:17.762Z,56.1
2018-11-14T09:35:16.647Z,60.1
2018-11-14T09:40:16.794Z,56.9
2018-11-14T09:45:17.497Z,36
2018-11-14T09:50:17.656Z,47.9
2018-11-14T09:55:17.642Z,47.1
2018-11-14T10:00:17.563Z,46.5
2018-11-14T10:05:17.645Z,44.5
2018-11-14T10:10:16.815Z,49.1
2018-11-14T10:15:16.681Z,46.6
2018-11-14T10:20:16.714Z,45.6
2018-11-14T10:25:17.794Z,45.2
2018-11-14T10:30:16.986Z,46.5
2018-11-14T10:35:17.304Z,42.8
2018-11-14T10:40:17.604Z,41.1
2018-11-14T10:45:17.490Z,35.9
2018-11-14T10:50:17.582Z,44.1
2018-11-14T10:55:17.518Z,42
2018-11-14T11:00:17.418Z,41.3
2018-11-14T11:05:17.733Z,38.4
2018-11-14T11:10:16.990Z,40.4
2018-11-14T11:15:16.946Z,39.4
2018-11-14T11:20:17.105Z,33.3
2018-11-14T11:25:17.210Z,42.7
2018-11-14T11:30:17.278Z,31.2
2018-11-14T11:35:17.434Z,45.9
2018-11-14T11:40:17.677Z,21.4
2018-11-14T11:45:17.559Z,44.8
2018-11-14T11:50:17.690Z,32.5
2018-11-14T11:55:17.775Z,42.8
2018-11-14T12:00:17.138Z,50.4
2018-11-14T12:05:17.574Z,30.7
2018-11-14T12:10:16.950Z,54.3
2018-11-14T12:15:16.955Z,55.5
2018-11-14T12:20:17.022Z,50.6
2018-11-14T12:25:17.045Z,60.4
2018-11-14T12:30:16.940Z,57
2018-11-14T12:35:17.447Z,56.1
2018-11-14T12:40:16.755Z,59
2018-11-14T12:45:16.758Z,54
2018-11-14T12:50:17.001Z,44.2
2018-11-14T12:55:17.117Z,57.7
2018-11-14T13:00:17.222Z,59
2018-11-14T13:05:17.581Z,52.8
2018-11-14T13:10:16.598Z,41.3
2018-11-14T13:15:17.527Z,55.9
2018-11-14T13:20:17.870Z,52.7
2018-11-14T13:25:16.986Z,51.9
2018-11-14T13:30:16.902Z,39.1
2018-11-14T13:35:17.018Z,51.7
2018-11-14T13:40:17.550Z,59.9
2018-11-14T13:45:17.510Z,54.7
2018-11-14T13:50:17.758Z,56.1
2018-11-14T13:55:17.194Z,49
2018-11-14T14:00:17.145Z,52.1
2018-11-14T14:05:17.222Z,36.3
2018-11-14T14:10:17.462Z,56.5
2018-11-14T14:15:17.474Z,54.1
2018-11-14T14:20:17.995Z,58.3
2018-11-14T14:25:17.175Z,49.8
2018-11-14T14:30:17.176Z,33.3
2018-11-14T14:35:17.087Z,48.5
2018-11-14T14:40:17.259Z,60.5
2018-11-14T14:45:17.402Z,49.4
2018-11-14T14:50:17.406Z,49.6
2018-11-14T14:55:17.466Z,59.9
2018-11-14T15:00:17.414Z,46.8
2018-11-14T15:05:17.298Z,28.9
2018-11-14T15:10:17.666Z,41.1
2018-11-14T15:15:17.566Z,40.4
2018-11-14T15:20:16.666Z,35.7
2018-11-14T15:25:17.742Z,40.1
2018-11-14T15:30:17.555Z,38.8
2018-11-14T15:35:17.758Z,34.1
2018-11-14T15:40:17.466Z,24.7
2018-11-14T15:45:17.395Z,30.9
2018-11-14T15:50:17.366Z,32.6
2018-11-14T15:55:17.466Z,28.2
2018-11-14T16:00:17.485Z,29.5
2018-11-14T16:05:17.612Z,28.5
2018-11-14T16:10:16.798Z,21.4
2018-11-14T16:15:16.898Z,23.5
2018-11-14T16:20:17.069Z,20.9
2018-11-14T16:25:17.249Z,19.8
2018-11-14T16:30:17.195Z,20.5
2018-11-14T16:35:17.374Z,22.3
2018-11-14T16:40:17.645Z,23.9
2018-11-14T16:45:17.590Z,17.2
2018-11-14T16:50:17.695Z,19.2
2018-11-14T16:55:17.649Z,18.1
2018-11-14T17:00:17.626Z,19.6
2018-11-14T17:05:17.594Z,8.4
2018-11-14T17:10:16.970Z,15.5
2018-11-14T17:15:16.882Z,12.1
2018-11-14T17:20:17.166Z,13.3
2018-11-14T17:25:17.099Z,18.3
2018-11-14T17:30:17.546Z,12.9
2018-11-14T17:35:17.411Z,8.8
2018-11-14T17:40:17.557Z,14.7
2018-11-14T17:45:17.589Z,8.3
2018-11-14T17:50:17.540Z,12.1
2018-11-14T17:55:17.739Z,11.4
2018-11-14T18:00:17.058Z,11.4
2018-11-14T18:05:17.199Z,5.8
2018-11-14T18:10:17.353Z,10.3
2018-11-14T18:15:17.451Z,11.2
2018-11-14T18:20:17.694Z,11.1
2018-11-14T18:25:17.574Z,5.2
2018-11-14T18:30:17.411Z,11.2
2018-11-14T18:35:17.443Z,11.7
2018-11-14T18:40:17.774Z,12.7
2018-11-14T18:45:16.909Z,22.4
2018-11-14T18:50:16.909Z,10.5
2018-11-14T18:55:16.862Z,9.5
2018-11-14T19:00:17.039Z,9.2
2018-11-14T19:05:17.050Z,2.4
2018-11-14T19:10:17.194Z,7.8
2018-11-14T19:15:17.073Z,6.1
2018-11-14T19:20:17.423Z,8.7
2018-11-14T19:25:17.388Z,5.4
2018-11-14T19:30:17.504Z,6.6
2018-11-14T19:35:17.642Z,8.1
2018-11-14T19:40:16.946Z,8.7
2018-11-14T19:45:16.890Z,8.1
2018-11-14T19:50:16.847Z,6.4
2018-11-14T19:55:17.100Z,7.7
2018-11-14T20:00:17.426Z,7.1
2018-11-14T20:05:17.350Z,5.8
2018-11-14T20:10:17.668Z,5.3
2018-11-14T20:15:16.897Z,8.1
2018-11-14T20:20:17.029Z,4.3
2018-11-14T20:25:17.241Z,6.7
2018-11-14T20:30:17.223Z,6.5
2018-11-14T20:35:17.465Z,4.1
2018-11-14T20:40:17.617Z,5.9
2018-11-14T20:45:17.750Z,4.2
2018-11-14T20:50:16.651Z,6.7
2018-11-14T20:55:17.522Z,4
2018-11-14T21:00:17.494Z,7
2018-11-14T21:05:17.522Z,6.8
2018-11-14T21:10:17.626Z,4.4
2018-11-14T21:15:17.902Z,6.5
2018-11-14T21:20:17.482Z,7
2018-11-14T21:25:17.586Z,7.9
2018-11-14T21:30:17.582Z,4.9
2018-11-14T21:35:17.566Z,8.9
2018-11-14T21:40:16.746Z,4.1
2018-11-14T21:45:16.914Z,8.3
2018-11-14T21:50:16.826Z,8.3
2018-11-14T21:55:16.692Z,7.6
2018-11-14T22:00:17.629Z,5.2
2018-11-14T22:05:17.995Z,8
2018-11-14T22:10:17.498Z,8.6
2018-11-14T22:15:17.509Z,9.8
2018-11-14T22:20:17.669Z,9.2
2018-11-14T22:25:16.709Z,7.5
2018-11-14T22:30:17.666Z,7.8
2018-11-14T22:35:17.826Z,8.1
2018-11-14T22:40:17.194Z,4.5
2018-11-14T22:45:17.365Z,8.1
2018-11-14T22:50:17.351Z,6
2018-11-14T22:55:17.406Z,6.4
2018-11-14T23:00:17.602Z,6.7
2018-11-14T23:05:17.521Z,6.8
2018-11-14T23:10:17.658Z,7.7
2018-11-14T23:15:17.811Z,4
2018-11-14T23:20:17.164Z,6.3
2018-11-14T23:25:17.062Z,5.7
2018-11-14T23:30:17.026Z,4.6
2018-11-14T23:35:17.162Z,5.7
2018-11-14T23:40:17.317Z,5.6
2018-11-14T23:45:17.466Z,6.3
2018-11-14T23:50:17.443Z,3.8
2018-11-14T23:55:17.667Z,5.1
